sensor_id;sensor_type;location;lat;lon;timestamp;pressure;altitude;pressure_sealevel;temperature;humidity
43312;BME280;30041;48.300;16.352;2024-03-25T00:00:03;98724.84;;;18.20;43.63
43312;BME280;30041;48.300;16.352;2024-03-25T00:02:38;98723.19;;;18.19;43.40
43312;BME280;30041;48.300;16.352;2024-03-25T00:05:05;98732.03;;;18.19;43.42
43312;BME280;30041;48.300;16.352;2024-03-25T00:07:31;98731.22;;;18.19;43.38
43312;BME280;30041;48.300;16.352;2024-03-25T00:09:57;98735.56;;;18.20;43.35
43312;BME280;30041;48.300;16.352;2024-03-25T00:12:22;98733.09;;;18.18;43.42
43312;BME280;30041;48.300;16.352;2024-03-25T00:14:48;98727.75;;;18.18;43.37
43312;BME280;30041;48.300;16.352;2024-03-25T00:17:14;98725.88;;;18.19;43.26
43312;BME280;30041;48.300;16.352;2024-03-25T00:19:40;98718.91;;;18.18;43.42
43312;BME280;30041;48.300;16.352;2024-03-25T00:22:05;98723.19;;;18.19;43.27
43312;BME280;30041;48.300;16.352;2024-03-25T00:24:31;98729.03;;;18.16;43.39
43312;BME280;30041;48.300;16.352;2024-03-25T00:26:57;98718.31;;;18.16;43.23
43312;BME280;30041;48.300;16.352;2024-03-25T00:29:22;98729.84;;;18.16;43.31
43312;BME280;30041;48.300;16.352;2024-03-25T00:31:48;98714.34;;;18.18;43.29
43312;BME280;30041;48.300;16.352;2024-03-25T00:34:14;98713.75;;;18.16;43.25
43312;BME280;30041;48.300;16.352;2024-03-25T00:36:40;98712.94;;;18.16;43.52
43312;BME280;30041;48.300;16.352;2024-03-25T00:39:06;98721.00;;;18.16;43.30
43312;BME280;30041;48.300;16.352;2024-03-25T00:41:32;98718.31;;;18.16;43.39
43312;BME280;30041;48.300;16.352;2024-03-25T00:43:57;98723.69;;;18.16;43.48
43312;BME280;30041;48.300;16.352;2024-03-25T00:46:23;98726.34;;;18.16;43.55
43312;BME280;30041;48.300;16.352;2024-03-25T00:48:49;98715.63;;;18.16;43.42
43312;BME280;30041;48.300;16.352;2024-03-25T00:51:14;98708.41;;;18.16;43.22
43312;BME280;30041;48.300;16.352;2024-03-25T00:53:40;98704.09;;;18.15;43.35
43312;BME280;30041;48.300;16.352;2024-03-25T00:56:06;98705.72;;;18.16;43.25
43312;BME280;30041;48.300;16.352;2024-03-25T00:58:32;98697.91;;;18.15;43.20
43312;BME280;30041;48.300;16.352;2024-03-25T01:00:57;98701.66;;;18.14;43.32
43312;BME280;30041;48.300;16.352;2024-03-25T01:03:23;98698.97;;;18.14;43.10
43312;BME280;30041;48.300;16.352;2024-03-25T01:05:49;98688.25;;;18.14;43.51
43312;BME280;30041;48.300;16.352;2024-03-25T01:08:14;98691.16;;;18.12;43.40
43312;BME280;30041;48.300;16.352;2024-03-25T01:10:40;98703.53;;;18.13;43.25
43312;BME280;30041;48.300;16.352;2024-03-25T01:13:06;98706.44;;;18.12;43.15
43312;BME280;30041;48.300;16.352;2024-03-25T01:15:31;98706.44;;;18.12;43.33
43312;BME280;30041;48.300;16.352;2024-03-25T01:17:57;98691.41;;;18.11;43.32
43312;BME280;30041;48.300;16.352;2024-03-25T01:20:23;98697.56;;;18.11;43.27
43312;BME280;30041;48.300;16.352;2024-03-25T01:22:49;98700.00;;;18.13;43.47
43312;BME280;30041;48.300;16.352;2024-03-25T01:25:14;98695.69;;;18.12;43.46
43312;BME280;30041;48.300;16.352;2024-03-25T01:27:40;98694.09;;;18.11;43.34
43312;BME280;30041;48.300;16.352;2024-03-25T01:30:06;98695.13;;;18.10;43.21
43312;BME280;30041;48.300;16.352;2024-03-25T01:32:32;98702.94;;;18.11;43.27
43312;BME280;30041;48.300;16.352;2024-03-25T01:34:58;98695.94;;;18.10;43.22
43312;BME280;30041;48.300;16.352;2024-03-25T01:37:23;98696.78;;;18.11;43.29
43312;BME280;30041;48.300;16.352;2024-03-25T01:39:49;98698.38;;;18.12;43.26
43312;BME280;30041;48.300;16.352;2024-03-25T01:42:15;98696.78;;;18.11;43.26
43312;BME280;30041;48.300;16.352;2024-03-25T01:44:40;98698.63;;;18.10;43.32
43312;BME280;30041;48.300;16.352;2024-03-25T01:47:06;98687.06;;;18.10;43.38
43312;BME280;30041;48.300;16.352;2024-03-25T01:49:32;98682.53;;;18.10;43.23
43312;BME280;30041;48.300;16.352;2024-03-25T01:51:58;98687.88;;;18.10;43.29
43312;BME280;30041;48.300;16.352;2024-03-25T01:54:25;98694.09;;;18.11;43.46
43312;BME280;30041;48.300;16.352;2024-03-25T01:56:51;98685.19;;;18.10;43.32
43312;BME280;30041;48.300;16.352;2024-03-25T01:59:17;98686.28;;;18.09;43.27
43312;BME280;30041;48.300;16.352;2024-03-25T02:01:44;98683.59;;;18.09;43.31
43312;BME280;30041;48.300;16.352;2024-03-25T02:04:12;98691.88;;;18.08;43.28
43312;BME280;30041;48.300;16.352;2024-03-25T02:06:40;98685.47;;;18.09;43.25
43312;BME280;30041;48.300;16.352;2024-03-25T02:09:07;98682.78;;;18.09;43.23
43312;BME280;30041;48.300;16.352;2024-03-25T02:11:34;98681.94;;;18.08;43.17
43312;BME280;30041;48.300;16.352;2024-03-25T02:14:00;98681.94;;;18.08;43.24
43312;BME280;30041;48.300;16.352;2024-03-25T02:16:26;98687.56;;;18.07;43.01
43312;BME280;30041;48.300;16.352;2024-03-25T02:18:52;98683.25;;;18.05;43.29
43312;BME280;30041;48.300;16.352;2024-03-25T02:21:18;98690.25;;;18.07;43.10
43312;BME280;30041;48.300;16.352;2024-03-25T02:23:44;98684.03;;;18.06;43.11
43312;BME280;30041;48.300;16.352;2024-03-25T02:26:12;98678.69;;;18.06;43.28
43312;BME280;30041;48.300;16.352;2024-03-25T02:28:38;98681.63;;;18.04;43.21
43312;BME280;30041;48.300;16.352;2024-03-25T02:31:03;98677.88;;;18.05;43.30
43312;BME280;30041;48.300;16.352;2024-03-25T02:33:29;98675.19;;;18.05;43.42
43312;BME280;30041;48.300;16.352;2024-03-25T02:35:55;98670.91;;;18.04;43.19
43312;BME280;30041;48.300;16.352;2024-03-25T02:38:21;98677.06;;;18.05;43.20
43312;BME280;30041;48.300;16.352;2024-03-25T02:40:47;98679.75;;;18.05;43.20
43312;BME280;30041;48.300;16.352;2024-03-25T02:43:13;98682.66;;;18.03;43.17
43312;BME280;30041;48.300;16.352;2024-03-25T02:45:39;98677.88;;;18.05;42.92
43312;BME280;30041;48.300;16.352;2024-03-25T02:48:05;98687.78;;;18.05;43.38
43312;BME280;30041;48.300;16.352;2024-03-25T02:50:31;98685.13;;;18.05;43.21
43312;BME280;30041;48.300;16.352;2024-03-25T02:52:57;98684.53;;;18.03;43.23
43312;BME280;30041;48.300;16.352;2024-03-25T02:55:22;98671.34;;;18.01;43.33
43312;BME280;30041;48.300;16.352;2024-03-25T02:57:48;98678.38;;;18.02;43.24
43312;BME280;30041;48.300;16.352;2024-03-25T03:00:14;98675.69;;;18.02;43.35
43312;BME280;30041;48.300;16.352;2024-03-25T03:02:40;98685.34;;;18.03;43.51
43312;BME280;30041;48.300;16.352;2024-03-25T03:05:05;98695.25;;;18.03;43.38
43312;BME280;30041;48.300;16.352;2024-03-25T03:07:31;98692.56;;;18.03;43.31
43312;BME280;30041;48.300;16.352;2024-03-25T03:09:57;98683.72;;;18.02;43.24
43312;BME280;30041;48.300;16.352;2024-03-25T03:12:23;98689.91;;;18.03;43.28
43312;BME280;30041;48.300;16.352;2024-03-25T03:14:48;98695.47;;;18.01;43.13
43312;BME280;30041;48.300;16.352;2024-03-25T03:17:14;98694.44;;;18.02;43.27
43312;BME280;30041;48.300;16.352;2024-03-25T03:19:41;98700.63;;;18.03;43.20
43312;BME280;30041;48.300;16.352;2024-03-25T03:22:07;98697.34;;;18.01;43.24
43312;BME280;30041;48.300;16.352;2024-03-25T03:24:32;98692.81;;;18.01;43.38
43312;BME280;30041;48.300;16.352;2024-03-25T03:26:58;98692.00;;;18.01;43.23
43312;BME280;30041;48.300;16.352;2024-03-25T03:29:24;98693.88;;;18.00;43.33
43312;BME280;30041;48.300;16.352;2024-03-25T03:31:50;98696.56;;;18.00;43.28
43312;BME280;30041;48.300;16.352;2024-03-25T03:34:15;98703.78;;;18.00;43.31
43312;BME280;30041;48.300;16.352;2024-03-25T03:36:41;98709.38;;;17.98;43.23
43312;BME280;30041;48.300;16.352;2024-03-25T03:39:07;98701.34;;;17.98;43.07
43312;BME280;30041;48.300;16.352;2024-03-25T03:41:32;98707.50;;;17.99;43.40
43312;BME280;30041;48.300;16.352;2024-03-25T03:43:58;98706.69;;;17.98;43.16
43312;BME280;30041;48.300;16.352;2024-03-25T03:46:24;98709.38;;;17.98;43.34
43312;BME280;30041;48.300;16.352;2024-03-25T03:48:49;98704.00;;;17.98;43.39
43312;BME280;30041;48.300;16.352;2024-03-25T03:51:15;98705.63;;;17.99;43.24
43312;BME280;30041;48.300;16.352;2024-03-25T03:53:41;98705.88;;;17.98;43.39
43312;BME280;30041;48.300;16.352;2024-03-25T03:56:07;98711.84;;;18.00;43.16
43312;BME280;30041;48.300;16.352;2024-03-25T03:58:33;98712.63;;;18.00;43.26
43312;BME280;30041;48.300;16.352;2024-03-25T04:01:00;98707.75;;;17.97;43.47
43312;BME280;30041;48.300;16.352;2024-03-25T04:03:26;98703.22;;;17.98;43.53
43312;BME280;30041;48.300;16.352;2024-03-25T04:05:52;98713.13;;;17.97;43.41
43312;BME280;30041;48.300;16.352;2024-03-25T04:08:18;98712.28;;;17.97;43.41
43312;BME280;30041;48.300;16.352;2024-03-25T04:10:44;98719.53;;;17.96;43.29
43312;BME280;30041;48.300;16.352;2024-03-25T04:13:10;98711.25;;;17.98;43.33
43312;BME280;30041;48.300;16.352;2024-03-25T04:15:37;98720.91;;;17.99;43.18
43312;BME280;30041;48.300;16.352;2024-03-25T04:18:03;98721.97;;;17.98;43.35
43312;BME280;30041;48.300;16.352;2024-03-25T04:20:29;98720.91;;;17.99;43.30
43312;BME280;30041;48.300;16.352;2024-03-25T04:22:55;98727.34;;;17.98;43.30
43312;BME280;30041;48.300;16.352;2024-03-25T04:25:21;98722.78;;;17.98;43.45
43312;BME280;30041;48.300;16.352;2024-03-25T04:27:47;98725.09;;;17.95;43.20
43312;BME280;30041;48.300;16.352;2024-03-25T04:30:15;98720.59;;;17.95;43.25
43312;BME280;30041;48.300;16.352;2024-03-25T04:32:42;98723.25;;;17.95;43.34
43312;BME280;30041;48.300;16.352;2024-03-25T04:35:08;98718.13;;;17.94;43.42
43312;BME280;30041;48.300;16.352;2024-03-25T04:37:34;98713.56;;;17.94;43.30
43312;BME280;30041;48.300;16.352;2024-03-25T04:40:00;98718.94;;;17.94;43.39
43312;BME280;30041;48.300;16.352;2024-03-25T04:42:26;98717.06;;;17.95;43.43
43312;BME280;30041;48.300;16.352;2024-03-25T04:44:52;98722.69;;;17.93;43.41
43312;BME280;30041;48.300;16.352;2024-03-25T04:47:18;98717.31;;;17.93;43.41
43312;BME280;30041;48.300;16.352;2024-03-25T04:49:44;98721.63;;;17.94;43.44
43312;BME280;30041;48.300;16.352;2024-03-25T04:52:11;98720.81;;;17.94;43.33
43312;BME280;30041;48.300;16.352;2024-03-25T04:54:37;98723.50;;;17.94;43.38
43312;BME280;30041;48.300;16.352;2024-03-25T04:57:03;98721.03;;;17.92;43.50
43312;BME280;30041;48.300;16.352;2024-03-25T04:59:29;98729.88;;;17.93;43.49
43312;BME280;30041;48.300;16.352;2024-03-25T05:01:54;98750.53;;;17.92;43.46
43312;BME280;30041;48.300;16.352;2024-03-25T05:04:20;98764.72;;;17.93;43.40
43312;BME280;30041;48.300;16.352;2024-03-25T05:06:46;98769.88;;;17.94;43.41
43312;BME280;30041;48.300;16.352;2024-03-25T05:09:11;98773.84;;;17.92;43.31
43312;BME280;30041;48.300;16.352;2024-03-25T05:11:37;98779.19;;;17.92;43.44
43312;BME280;30041;48.300;16.352;2024-03-25T05:14:03;98779.19;;;17.92;43.53
43312;BME280;30041;48.300;16.352;2024-03-25T05:16:28;98783.75;;;17.91;43.30
43312;BME280;30041;48.300;16.352;2024-03-25T05:18:56;98773.03;;;17.91;43.32
43312;BME280;30041;48.300;16.352;2024-03-25T05:21:22;98775.72;;;17.91;43.42
43312;BME280;30041;48.300;16.352;2024-03-25T05:23:48;98776.75;;;17.90;43.43
43312;BME280;30041;48.300;16.352;2024-03-25T05:26:13;98777.34;;;17.92;43.37
43312;BME280;30041;48.300;16.352;2024-03-25T05:28:39;98783.75;;;17.91;43.43
43312;BME280;30041;48.300;16.352;2024-03-25T05:31:08;98775.59;;;17.86;43.50
43312;BME280;30041;48.300;16.352;2024-03-25T05:33:35;98775.34;;;17.88;43.41
43312;BME280;30041;48.300;16.352;2024-03-25T05:36:01;98774.31;;;17.89;43.45
43312;BME280;30041;48.300;16.352;2024-03-25T05:38:28;98786.88;;;17.88;43.37
43312;BME280;30041;48.300;16.352;2024-03-25T05:40:54;98780.50;;;17.89;43.32
43312;BME280;30041;48.300;16.352;2024-03-25T05:43:21;98774.91;;;17.91;43.41
43312;BME280;30041;48.300;16.352;2024-03-25T05:45:53;98781.31;;;17.90;43.45
43312;BME280;30041;48.300;16.352;2024-03-25T05:48:20;98778.84;;;17.88;43.47
43312;BME280;30041;48.300;16.352;2024-03-25T05:51:02;98784.22;;;17.88;43.34
43312;BME280;30041;48.300;16.352;2024-03-25T05:53:28;98782.59;;;17.87;43.32
43312;BME280;30041;48.300;16.352;2024-03-25T05:55:55;98772.94;;;17.86;43.20
43312;BME280;30041;48.300;16.352;2024-03-25T05:58:21;98768.97;;;17.89;43.38
43312;BME280;30041;48.300;16.352;2024-03-25T06:00:49;98778.03;;;17.88;43.34
43312;BME280;30041;48.300;16.352;2024-03-25T06:03:16;98770.69;;;17.83;43.28
43312;BME280;30041;48.300;16.352;2024-03-25T06:05:42;98780.63;;;17.82;43.50
43312;BME280;30041;48.300;16.352;2024-03-25T06:08:08;98785.75;;;17.84;43.27
43312;BME280;30041;48.300;16.352;2024-03-25T06:10:39;98789.47;;;17.83;43.36
43312;BME280;30041;48.300;16.352;2024-03-25T06:13:05;98794.81;;;17.83;43.40
43312;BME280;30041;48.300;16.352;2024-03-25T06:15:30;98793.19;;;17.82;43.50
43312;BME280;30041;48.300;16.352;2024-03-25T06:17:57;98795.88;;;17.82;43.50
43312;BME280;30041;48.300;16.352;2024-03-25T06:20:22;98792.38;;;17.81;43.26
43312;BME280;30041;48.300;16.352;2024-03-25T06:22:48;98798.56;;;17.82;43.42
43312;BME280;30041;48.300;16.352;2024-03-25T06:25:14;98800.63;;;17.80;43.31
43312;BME280;30041;48.300;16.352;2024-03-25T06:27:40;98804.94;;;17.81;43.34
43312;BME280;30041;48.300;16.352;2024-03-25T06:30:06;98810.28;;;17.81;43.53
43312;BME280;30041;48.300;16.352;2024-03-25T06:32:32;98789.09;;;17.79;43.39
43312;BME280;30041;48.300;16.352;2024-03-25T06:34:58;98798.75;;;17.80;43.33
43312;BME280;30041;48.300;16.352;2024-03-25T06:37:23;98803.53;;;17.78;43.38
43312;BME280;30041;48.300;16.352;2024-03-25T06:39:49;98803.53;;;17.78;43.38
43312;BME280;30041;48.300;16.352;2024-03-25T06:42:15;98800.63;;;17.80;43.31
43312;BME280;30041;48.300;16.352;2024-03-25T06:44:41;98808.91;;;17.78;43.49
43312;BME280;30041;48.300;16.352;2024-03-25T06:47:06;98807.03;;;17.79;43.53
43312;BME280;30041;48.300;16.352;2024-03-25T06:49:32;98810.75;;;17.78;43.36
43312;BME280;30041;48.300;16.352;2024-03-25T06:51:58;98810.75;;;17.78;43.42
43312;BME280;30041;48.300;16.352;2024-03-25T06:54:23;98816.13;;;17.78;43.31
43312;BME280;30041;48.300;16.352;2024-03-25T06:56:49;98816.13;;;17.78;43.36
43312;BME280;30041;48.300;16.352;2024-03-25T06:59:15;98834.06;;;17.77;43.45
43312;BME280;30041;48.300;16.352;2024-03-25T07:01:41;98821.72;;;17.76;43.44
43312;BME280;30041;48.300;16.352;2024-03-25T07:04:06;98828.72;;;17.77;43.26
43312;BME280;30041;48.300;16.352;2024-03-25T07:06:32;98825.19;;;17.77;43.43
43312;BME280;30041;48.300;16.352;2024-03-25T07:08:58;98828.94;;;17.76;43.38
43312;BME280;30041;48.300;16.352;2024-03-25T07:11:23;98820.09;;;17.75;43.30
43312;BME280;30041;48.300;16.352;2024-03-25T07:13:49;98835.34;;;17.75;43.38
43312;BME280;30041;48.300;16.352;2024-03-25T07:16:15;98824.59;;;17.75;43.31
43312;BME280;30041;48.300;16.352;2024-03-25T07:18:40;98830.81;;;17.75;43.30
43312;BME280;30041;48.300;16.352;2024-03-25T07:21:06;98823.00;;;17.74;43.33
43312;BME280;30041;48.300;16.352;2024-03-25T07:23:32;98831.03;;;17.74;43.34
43312;BME280;30041;48.300;16.352;2024-03-25T07:25:57;98825.69;;;17.74;43.37
43312;BME280;30041;48.300;16.352;2024-03-25T07:28:23;98827.53;;;17.73;43.41
43312;BME280;30041;48.300;16.352;2024-03-25T07:30:51;98838.00;;;17.75;43.34
43312;BME280;30041;48.300;16.352;2024-03-25T07:33:18;98831.84;;;17.74;43.40
43312;BME280;30041;48.300;16.352;2024-03-25T07:35:45;98844.44;;;17.74;43.26
43312;BME280;30041;48.300;16.352;2024-03-25T07:38:10;98837.19;;;17.74;43.23
43312;BME280;30041;48.300;16.352;2024-03-25T07:40:36;98849.78;;;17.74;43.42
43312;BME280;30041;48.300;16.352;2024-03-25T07:43:02;98849.22;;;17.72;43.39
43312;BME280;30041;48.300;16.352;2024-03-25T07:45:27;98848.41;;;17.71;43.37
43312;BME280;30041;48.300;16.352;2024-03-25T07:47:53;98850.28;;;17.71;43.36
43312;BME280;30041;48.300;16.352;2024-03-25T07:50:19;98842.22;;;17.71;43.37
43312;BME280;30041;48.300;16.352;2024-03-25T07:52:45;98848.41;;;17.71;43.41
43312;BME280;30041;48.300;16.352;2024-03-25T07:55:10;98843.84;;;17.72;43.35
43312;BME280;30041;48.300;16.352;2024-03-25T07:57:36;98863.41;;;17.72;43.34
43312;BME280;30041;48.300;16.352;2024-03-25T08:00:03;98867.97;;;17.72;43.27
43312;BME280;30041;48.300;16.352;2024-03-25T08:02:37;98867.97;;;17.72;43.22
43312;BME280;30041;48.300;16.352;2024-03-25T08:05:03;98862.59;;;17.72;43.41
43312;BME280;30041;48.300;16.352;2024-03-25T08:07:29;98862.03;;;17.70;43.19
43312;BME280;30041;48.300;16.352;2024-03-25T08:09:55;98884.25;;;17.70;43.51
43312;BME280;30041;48.300;16.352;2024-03-25T08:12:20;98876.00;;;17.72;43.28
43312;BME280;30041;48.300;16.352;2024-03-25T08:14:46;98867.16;;;17.71;43.37
43312;BME280;30041;48.300;16.352;2024-03-25T08:17:12;98890.47;;;17.71;43.21
43312;BME280;30041;48.300;16.352;2024-03-25T08:19:38;98873.31;;;17.72;43.22
43312;BME280;30041;48.300;16.352;2024-03-25T08:22:03;98887.78;;;17.71;43.47
43312;BME280;30041;48.300;16.352;2024-03-25T08:24:29;98880.78;;;17.70;43.25
43312;BME280;30041;48.300;16.352;2024-03-25T08:26:55;98889.63;;;17.70;43.40
43312;BME280;30041;48.300;16.352;2024-03-25T08:29:21;98886.13;;;17.70;43.22
43312;BME280;30041;48.300;16.352;2024-03-25T08:31:46;98876.00;;;17.72;43.19
43312;BME280;30041;48.300;16.352;2024-03-25T08:34:12;98887.19;;;17.69;43.37
43312;BME280;30041;48.300;16.352;2024-03-25T08:36:38;98887.19;;;17.69;43.29
43312;BME280;30041;48.300;16.352;2024-03-25T08:39:03;98895.25;;;17.69;43.48
43312;BME280;30041;48.300;16.352;2024-03-25T08:41:29;98892.56;;;17.69;43.35
43312;BME280;30041;48.300;16.352;2024-03-25T08:43:55;98904.09;;;17.69;43.27
43312;BME280;30041;48.300;16.352;2024-03-25T08:46:20;98899.53;;;17.70;43.33
43312;BME280;30041;48.300;16.352;2024-03-25T08:48:46;98903.28;;;17.69;43.39
43312;BME280;30041;48.300;16.352;2024-03-25T08:51:12;98901.63;;;17.68;43.52
43312;BME280;30041;48.300;16.352;2024-03-25T08:53:38;98907.00;;;17.68;43.35
43312;BME280;30041;48.300;16.352;2024-03-25T08:56:03;98907.00;;;17.68;43.30
43312;BME280;30041;48.300;16.352;2024-03-25T08:58:29;98925.75;;;17.68;43.51
43312;BME280;30041;48.300;16.352;2024-03-25T09:00:55;98913.16;;;17.68;43.34
43312;BME280;30041;48.300;16.352;2024-03-25T09:03:20;98918.50;;;17.68;43.44
43312;BME280;30041;48.300;16.352;2024-03-25T09:05:47;98912.34;;;17.68;43.37
43312;BME280;30041;48.300;16.352;2024-03-25T09:08:12;98917.97;;;17.66;43.52
43312;BME280;30041;48.300;16.352;2024-03-25T09:10:38;98928.44;;;17.68;43.42
43312;BME280;30041;48.300;16.352;2024-03-25T09:13:04;98937.53;;;17.67;43.38
43312;BME280;30041;48.300;16.352;2024-03-25T09:15:30;98924.13;;;17.67;43.44
43312;BME280;30041;48.300;16.352;2024-03-25T09:17:56;98931.34;;;17.66;43.24
43312;BME280;30041;48.300;16.352;2024-03-25T09:20:22;98934.84;;;17.67;43.46
43312;BME280;30041;48.300;16.352;2024-03-25T09:22:47;98916.31;;;17.65;43.16
43312;BME280;30041;48.300;16.352;2024-03-25T09:25:14;98916.53;;;17.63;43.49
43312;BME280;30041;48.300;16.352;2024-03-25T09:27:40;98938.56;;;17.66;43.39
43312;BME280;30041;48.300;16.352;2024-03-25T09:30:06;98931.34;;;17.66;43.44
43312;BME280;30041;48.300;16.352;2024-03-25T09:32:34;98916.53;;;17.63;43.29
43312;BME280;30041;48.300;16.352;2024-03-25T09:34:59;98924.34;;;17.65;43.38
43312;BME280;30041;48.300;16.352;2024-03-25T09:37:25;98927.03;;;17.65;43.38
43312;BME280;30041;48.300;16.352;2024-03-25T09:39:51;98920.84;;;17.64;43.30
43312;BME280;30041;48.300;16.352;2024-03-25T09:42:26;98924.56;;;17.63;43.37
43312;BME280;30041;48.300;16.352;2024-03-25T09:44:55;98910.34;;;17.63;43.56
43312;BME280;30041;48.300;16.352;2024-03-25T09:47:22;98921.88;;;17.63;43.46
43312;BME280;30041;48.300;16.352;2024-03-25T09:49:50;98913.03;;;17.63;43.30
43312;BME280;30041;48.300;16.352;2024-03-25T09:52:16;98921.28;;;17.61;43.55
43312;BME280;30041;48.300;16.352;2024-03-25T09:54:42;98910.56;;;17.61;43.42
43312;BME280;30041;48.300;16.352;2024-03-25T09:57:08;98911.63;;;17.60;43.56
43312;BME280;30041;48.300;16.352;2024-03-25T09:59:34;98907.91;;;17.61;43.48
43312;BME280;30041;48.300;16.352;2024-03-25T10:02:01;98908.75;;;17.62;43.72
43312;BME280;30041;48.300;16.352;2024-03-25T10:04:27;98914.91;;;17.62;43.47
43312;BME280;30041;48.300;16.352;2024-03-25T10:06:53;98898.81;;;17.62;43.55
43312;BME280;30041;48.300;16.352;2024-03-25T10:09:22;98909.53;;;17.62;43.42
43312;BME280;30041;48.300;16.352;2024-03-25T10:11:49;98925.63;;;17.62;43.40
43312;BME280;30041;48.300;16.352;2024-03-25T10:14:15;98914.91;;;17.62;43.26
43312;BME280;30041;48.300;16.352;2024-03-25T10:16:42;98909.53;;;17.62;43.40
43312;BME280;30041;48.300;16.352;2024-03-25T10:19:08;98919.47;;;17.62;43.48
43312;BME280;30041;48.300;16.352;2024-03-25T10:21:34;98903.59;;;17.60;43.73
43312;BME280;30041;48.300;16.352;2024-03-25T10:24:00;98916.19;;;17.60;43.66
43312;BME280;30041;48.300;16.352;2024-03-25T10:26:30;98906.28;;;17.60;43.47
43312;BME280;30041;48.300;16.352;2024-03-25T10:29:00;98925.84;;;17.61;43.54
43312;BME280;30041;48.300;16.352;2024-03-25T10:31:26;98938.44;;;17.60;43.72
43312;BME280;30041;48.300;16.352;2024-03-25T10:33:53;98939.25;;;17.61;43.56
43312;BME280;30041;48.300;16.352;2024-03-25T10:36:20;98942.97;;;17.60;43.58
43312;BME280;30041;48.300;16.352;2024-03-25T10:38:48;98926.91;;;17.60;43.68
43312;BME280;30041;48.300;16.352;2024-03-25T10:41:17;98912.69;;;17.59;43.65
43312;BME280;30041;48.300;16.352;2024-03-25T10:43:47;98932.25;;;17.60;43.54
43312;BME280;30041;48.300;16.352;2024-03-25T10:46:21;98921.28;;;17.61;43.68
43312;BME280;30041;48.300;16.352;2024-03-25T10:48:56;98917.00;;;17.60;43.65
43312;BME280;30041;48.300;16.352;2024-03-25T10:51:25;98919.91;;;17.59;43.71
43312;BME280;30041;48.300;16.352;2024-03-25T10:53:52;98908.38;;;17.58;43.57
43312;BME280;30041;48.300;16.352;2024-03-25T10:56:20;98899.31;;;17.59;43.73
43312;BME280;30041;48.300;16.352;2024-03-25T10:58:50;98911.03;;;17.58;43.72
43312;BME280;30041;48.300;16.352;2024-03-25T11:01:17;98911.84;;;17.59;43.57
43312;BME280;30041;48.300;16.352;2024-03-25T11:03:47;98904.66;;;17.59;43.96
43312;BME280;30041;48.300;16.352;2024-03-25T11:06:14;98909.19;;;17.59;43.57
43312;BME280;30041;48.300;16.352;2024-03-25T11:08:40;98903.00;;;17.58;43.65
43312;BME280;30041;48.300;16.352;2024-03-25T11:11:06;98897.66;;;17.58;43.65
43312;BME280;30041;48.300;16.352;2024-03-25T11:13:32;98889.03;;;17.56;43.64
43312;BME280;30041;48.300;16.352;2024-03-25T11:15:58;98886.13;;;17.58;43.49
43312;BME280;30041;48.300;16.352;2024-03-25T11:18:24;98887.16;;;17.57;43.70
43312;BME280;30041;48.300;16.352;2024-03-25T11:21:02;98874.59;;;17.57;43.66
43312;BME280;30041;48.300;16.352;2024-03-25T11:23:34;98886.34;;;17.56;43.66
43312;BME280;30041;48.300;16.352;2024-03-25T11:26:00;98875.63;;;17.56;43.56
43312;BME280;30041;48.300;16.352;2024-03-25T11:28:30;98877.50;;;17.56;43.81
43312;BME280;30041;48.300;16.352;2024-03-25T11:30:56;98880.97;;;17.56;43.74
43312;BME280;30041;48.300;16.352;2024-03-25T11:33:21;98889.03;;;17.56;43.73
43312;BME280;30041;48.300;16.352;2024-03-25T11:35:48;98899.75;;;17.56;43.59
43312;BME280;30041;48.300;16.352;2024-03-25T11:38:13;98890.09;;;17.55;43.60
43312;BME280;30041;48.300;16.352;2024-03-25T11:40:42;98882.84;;;17.56;43.61
43312;BME280;30041;48.300;16.352;2024-03-25T11:43:10;98882.84;;;17.56;43.60
43312;BME280;30041;48.300;16.352;2024-03-25T11:45:43;98875.63;;;17.56;43.67
43312;BME280;30041;48.300;16.352;2024-03-25T11:48:08;98878.31;;;17.56;43.83
43312;BME280;30041;48.300;16.352;2024-03-25T11:50:34;98875.88;;;17.55;43.65
43312;BME280;30041;48.300;16.352;2024-03-25T11:53:04;98888.22;;;17.56;43.44
43312;BME280;30041;48.300;16.352;2024-03-25T11:55:30;98888.44;;;17.54;43.72
43312;BME280;30041;48.300;16.352;2024-03-25T11:57:56;98885.75;;;17.54;43.44
43312;BME280;30041;48.300;16.352;2024-03-25T12:00:23;98881.22;;;17.55;43.73
43312;BME280;30041;48.300;16.352;2024-03-25T12:02:49;98879.38;;;17.55;43.63
43312;BME280;30041;48.300;16.352;2024-03-25T12:05:16;98873.41;;;17.53;43.59
43312;BME280;30041;48.300;16.352;2024-03-25T12:07:41;98875.03;;;17.54;43.68
43312;BME280;30041;48.300;16.352;2024-03-25T12:10:07;98866.19;;;17.54;43.68
43312;BME280;30041;48.300;16.352;2024-03-25T12:12:33;98877.72;;;17.54;43.47
43312;BME280;30041;48.300;16.352;2024-03-25T12:14:59;98871.56;;;17.54;43.65
43312;BME280;30041;48.300;16.352;2024-03-25T12:17:27;98875.03;;;17.54;43.66
43312;BME280;30041;48.300;16.352;2024-03-25T12:20:02;98875.03;;;17.54;43.54
43312;BME280;30041;48.300;16.352;2024-03-25T12:22:28;98871.56;;;17.54;43.83
43312;BME280;30041;48.300;16.352;2024-03-25T12:24:57;98864.31;;;17.54;43.64
43312;BME280;30041;48.300;16.352;2024-03-25T12:27:23;98882.25;;;17.54;43.57
43312;BME280;30041;48.300;16.352;2024-03-25T12:30:09;98876.31;;;17.52;43.56
43312;BME280;30041;48.300;16.352;2024-03-25T12:32:41;98877.97;;;17.53;43.70
43312;BME280;30041;48.300;16.352;2024-03-25T12:35:08;98864.78;;;17.51;43.60
43312;BME280;30041;48.300;16.352;2024-03-25T12:37:35;98861.06;;;17.52;43.69
43312;BME280;30041;48.300;16.352;2024-03-25T12:40:01;98861.91;;;17.53;43.65
43312;BME280;30041;48.300;16.352;2024-03-25T12:42:27;98849.53;;;17.52;43.53
43312;BME280;30041;48.300;16.352;2024-03-25T12:44:53;98862.91;;;17.52;43.58